Terminal Aerodrome Forecast
Issued by NWS Los Angeles, CA

Home | Current Version | Previous Version | Text Only | Print | Product List | Glossary On
Versions: 1 2 3 4 5 6 7 8 9 10 11 12 13 14 15 16 17 18 19 20 21
000
FTUS46 KLOX 200004 RRA
TAFSMX
TAF
KSMX 200004Z 2000/2024 32022G30KT P6SM FEW090
     FM200200 32012KT P6SM FEW050
     FM200400 32006KT P6SM SKC
     FM200700 VRB03KT P6SM SKC
     FM202000 31012KT P6SM FEW040=

USA.gov is the U.S. government's official web portal to all federal, state and local government web resources and services.